sensor_id;sensor_type;location;lat;lon;timestamp;P1;durP1;ratioP1;P2;durP2;ratioP2
15408;SDS011;7803;48.130;13.788;2022-08-19T00:11:57;7.05;;;6.45;;
15408;SDS011;7803;48.130;13.788;2022-08-19T00:15:15;6.43;;;5.93;;
15408;SDS011;7803;48.130;13.788;2022-08-19T00:18:33;6.40;;;5.80;;
15408;SDS011;7803;48.130;13.788;2022-08-19T00:21:39;6.50;;;5.90;;
15408;SDS011;7803;48.130;13.788;2022-08-19T00:24:42;6.75;;;6.15;;
15408;SDS011;7803;48.130;13.788;2022-08-19T00:27:45;6.20;;;5.70;;
15408;SDS011;7803;48.130;13.788;2022-08-19T00:30:47;6.22;;;5.72;;
15408;SDS011;7803;48.130;13.788;2022-08-19T00:33:51;6.82;;;6.22;;
15408;SDS011;7803;48.130;13.788;2022-08-19T00:36:54;6.88;;;6.28;;
15408;SDS011;7803;48.130;13.788;2022-08-19T00:39:58;6.68;;;6.07;;
15408;SDS011;7803;48.130;13.788;2022-08-19T00:43:00;6.35;;;5.75;;
15408;SDS011;7803;48.130;13.788;2022-08-19T00:46:09;6.55;;;6.03;;
15408;SDS011;7803;48.130;13.788;2022-08-19T00:49:26;6.55;;;6.05;;
15408;SDS011;7803;48.130;13.788;2022-08-19T00:52:37;6.63;;;6.03;;
15408;SDS011;7803;48.130;13.788;2022-08-19T00:56:09;7.82;;;6.47;;
15408;SDS011;7803;48.130;13.788;2022-08-19T00:59:12;6.72;;;6.13;;
15408;SDS011;7803;48.130;13.788;2022-08-19T01:02:15;6.70;;;6.18;;
15408;SDS011;7803;48.130;13.788;2022-08-19T01:05:18;6.82;;;6.22;;
15408;SDS011;7803;48.130;13.788;2022-08-19T01:08:22;6.80;;;6.20;;
15408;SDS011;7803;48.130;13.788;2022-08-19T01:11:26;6.72;;;6.20;;
15408;SDS011;7803;48.130;13.788;2022-08-19T01:14:29;6.88;;;6.28;;
15408;SDS011;7803;48.130;13.788;2022-08-19T01:17:31;7.13;;;6.43;;
15408;SDS011;7803;48.130;13.788;2022-08-19T01:20:34;7.10;;;6.50;;
15408;SDS011;7803;48.130;13.788;2022-08-19T01:23:37;7.00;;;6.50;;
15408;SDS011;7803;48.130;13.788;2022-08-19T01:26:46;7.15;;;6.55;;
15408;SDS011;7803;48.130;13.788;2022-08-19T01:29:48;7.00;;;6.03;;
15408;SDS011;7803;48.130;13.788;2022-08-19T01:32:51;6.93;;;6.25;;
15408;SDS011;7803;48.130;13.788;2022-08-19T01:35:54;6.75;;;6.25;;
15408;SDS011;7803;48.130;13.788;2022-08-19T01:39:07;7.20;;;6.60;;
15408;SDS011;7803;48.130;13.788;2022-08-19T01:42:12;6.70;;;6.10;;
15408;SDS011;7803;48.130;13.788;2022-08-19T01:45:14;7.00;;;6.40;;
15408;SDS011;7803;48.130;13.788;2022-08-19T01:48:16;6.95;;;6.40;;
15408;SDS011;7803;48.130;13.788;2022-08-19T01:51:18;6.97;;;6.38;;
15408;SDS011;7803;48.130;13.788;2022-08-19T01:54:22;6.95;;;6.28;;
15408;SDS011;7803;48.130;13.788;2022-08-19T01:57:25;6.57;;;6.05;;
15408;SDS011;7803;48.130;13.788;2022-08-19T02:00:29;6.85;;;6.28;;
15408;SDS011;7803;48.130;13.788;2022-08-19T02:03:32;7.00;;;6.40;;
15408;SDS011;7803;48.130;13.788;2022-08-19T02:06:34;6.72;;;6.13;;
15408;SDS011;7803;48.130;13.788;2022-08-19T02:09:38;7.10;;;6.40;;
15408;SDS011;7803;48.130;13.788;2022-08-19T02:12:40;6.95;;;6.35;;
15408;SDS011;7803;48.130;13.788;2022-08-19T02:15:43;7.07;;;6.47;;
15408;SDS011;7803;48.130;13.788;2022-08-19T02:18:45;7.22;;;6.70;;
15408;SDS011;7803;48.130;13.788;2022-08-19T02:21:49;7.13;;;6.53;;
15408;SDS011;7803;48.130;13.788;2022-08-19T02:24:52;7.43;;;6.72;;
15408;SDS011;7803;48.130;13.788;2022-08-19T02:27:55;7.15;;;6.55;;
15408;SDS011;7803;48.130;13.788;2022-08-19T02:30:57;7.20;;;6.57;;
15408;SDS011;7803;48.130;13.788;2022-08-19T02:34:00;7.13;;;6.53;;
15408;SDS011;7803;48.130;13.788;2022-08-19T02:37:02;7.20;;;6.50;;
15408;SDS011;7803;48.130;13.788;2022-08-19T02:40:06;7.10;;;6.60;;
15408;SDS011;7803;48.130;13.788;2022-08-19T02:43:08;6.55;;;6.05;;
15408;SDS011;7803;48.130;13.788;2022-08-19T02:46:11;6.93;;;6.35;;
15408;SDS011;7803;48.130;13.788;2022-08-19T02:49:14;7.00;;;6.40;;
15408;SDS011;7803;48.130;13.788;2022-08-19T02:52:17;6.53;;;6.03;;
15408;SDS011;7803;48.130;13.788;2022-08-19T02:55:20;6.38;;;5.88;;
15408;SDS011;7803;48.130;13.788;2022-08-19T02:58:23;6.28;;;5.75;;
15408;SDS011;7803;48.130;13.788;2022-08-19T03:01:27;7.10;;;6.43;;
15408;SDS011;7803;48.130;13.788;2022-08-19T03:04:30;5.95;;;5.53;;
15408;SDS011;7803;48.130;13.788;2022-08-19T03:07:32;7.00;;;6.40;;
15408;SDS011;7803;48.130;13.788;2022-08-19T03:10:40;6.82;;;6.32;;
15408;SDS011;7803;48.130;13.788;2022-08-19T03:13:45;7.03;;;6.38;;
15408;SDS011;7803;48.130;13.788;2022-08-19T03:16:50;6.88;;;6.38;;
15408;SDS011;7803;48.130;13.788;2022-08-19T03:19:53;7.10;;;6.40;;
15408;SDS011;7803;48.130;13.788;2022-08-19T03:22:55;6.53;;;6.03;;
15408;SDS011;7803;48.130;13.788;2022-08-19T03:25:59;7.10;;;6.40;;
15408;SDS011;7803;48.130;13.788;2022-08-19T03:29:05;6.60;;;6.10;;
15408;SDS011;7803;48.130;13.788;2022-08-19T03:32:10;6.25;;;5.75;;
15408;SDS011;7803;48.130;13.788;2022-08-19T03:35:13;6.57;;;5.97;;
15408;SDS011;7803;48.130;13.788;2022-08-19T03:38:15;6.70;;;6.10;;
15408;SDS011;7803;48.130;13.788;2022-08-19T03:41:19;6.00;;;5.50;;
15408;SDS011;7803;48.130;13.788;2022-08-19T03:44:22;6.38;;;5.88;;
15408;SDS011;7803;48.130;13.788;2022-08-19T03:47:24;6.72;;;6.10;;
15408;SDS011;7803;48.130;13.788;2022-08-19T03:50:26;6.30;;;5.80;;
15408;SDS011;7803;48.130;13.788;2022-08-19T03:53:29;7.18;;;6.53;;
15408;SDS011;7803;48.130;13.788;2022-08-19T03:56:34;7.78;;;7.05;;
15408;SDS011;7803;48.130;13.788;2022-08-19T03:59:37;7.40;;;6.32;;
15408;SDS011;7803;48.130;13.788;2022-08-19T04:02:40;6.93;;;6.32;;
15408;SDS011;7803;48.130;13.788;2022-08-19T04:05:43;7.32;;;6.72;;
15408;SDS011;7803;48.130;13.788;2022-08-19T04:08:45;7.85;;;7.22;;
15408;SDS011;7803;48.130;13.788;2022-08-19T04:11:50;7.82;;;7.05;;
15408;SDS011;7803;48.130;13.788;2022-08-19T04:14:54;7.13;;;6.53;;
15408;SDS011;7803;48.130;13.788;2022-08-19T04:17:56;7.75;;;7.15;;
15408;SDS011;7803;48.130;13.788;2022-08-19T04:20:58;8.80;;;8.10;;
15408;SDS011;7803;48.130;13.788;2022-08-19T04:24:00;8.93;;;8.13;;
15408;SDS011;7803;48.130;13.788;2022-08-19T04:27:05;8.63;;;7.93;;
15408;SDS011;7803;48.130;13.788;2022-08-19T04:30:07;8.98;;;8.18;;
15408;SDS011;7803;48.130;13.788;2022-08-19T04:33:10;8.10;;;7.40;;
15408;SDS011;7803;48.130;13.788;2022-08-19T04:36:15;8.25;;;7.60;;
15408;SDS011;7803;48.130;13.788;2022-08-19T04:39:23;7.93;;;7.22;;
15408;SDS011;7803;48.130;13.788;2022-08-19T04:42:48;8.27;;;7.53;;
15408;SDS011;7803;48.130;13.788;2022-08-19T04:45:49;8.13;;;7.43;;
15408;SDS011;7803;48.130;13.788;2022-08-19T04:48:51;8.60;;;7.80;;
15408;SDS011;7803;48.130;13.788;2022-08-19T04:51:56;9.98;;;7.72;;
15408;SDS011;7803;48.130;13.788;2022-08-19T04:54:58;8.13;;;7.43;;
15408;SDS011;7803;48.130;13.788;2022-08-19T04:58:02;8.20;;;7.40;;
15408;SDS011;7803;48.130;13.788;2022-08-19T05:01:04;7.93;;;7.32;;
15408;SDS011;7803;48.130;13.788;2022-08-19T05:04:06;8.45;;;7.65;;
15408;SDS011;7803;48.130;13.788;2022-08-19T05:07:08;11.38;;;10.27;;
15408;SDS011;7803;48.130;13.788;2022-08-19T05:10:10;11.68;;;10.68;;
15408;SDS011;7803;48.130;13.788;2022-08-19T05:13:14;10.63;;;9.73;;
15408;SDS011;7803;48.130;13.788;2022-08-19T05:16:19;10.82;;;9.82;;
15408;SDS011;7803;48.130;13.788;2022-08-19T05:19:21;10.10;;;9.20;;
15408;SDS011;7803;48.130;13.788;2022-08-19T05:22:41;10.68;;;9.60;;
15408;SDS011;7803;48.130;13.788;2022-08-19T05:25:44;13.05;;;10.02;;
15408;SDS011;7803;48.130;13.788;2022-08-19T05:28:48;12.07;;;9.50;;
15408;SDS011;7803;48.130;13.788;2022-08-19T05:31:50;14.00;;;10.93;;
15408;SDS011;7803;48.130;13.788;2022-08-19T05:34:53;20.63;;;12.43;;
15408;SDS011;7803;48.130;13.788;2022-08-19T05:37:55;24.02;;;13.35;;
15408;SDS011;7803;48.130;13.788;2022-08-19T05:40:57;20.33;;;12.93;;
15408;SDS011;7803;48.130;13.788;2022-08-19T05:44:03;24.25;;;13.57;;
15408;SDS011;7803;48.130;13.788;2022-08-19T05:47:09;18.50;;;11.63;;
15408;SDS011;7803;48.130;13.788;2022-08-19T05:50:12;17.80;;;13.38;;
15408;SDS011;7803;48.130;13.788;2022-08-19T05:53:14;16.00;;;12.82;;
15408;SDS011;7803;48.130;13.788;2022-08-19T05:56:17;18.23;;;12.07;;
15408;SDS011;7803;48.130;13.788;2022-08-19T05:59:21;23.83;;;12.63;;
15408;SDS011;7803;48.130;13.788;2022-08-19T06:02:24;26.70;;;13.80;;
15408;SDS011;7803;48.130;13.788;2022-08-19T06:05:26;31.98;;;16.27;;
15408;SDS011;7803;48.130;13.788;2022-08-19T06:08:28;44.28;;;19.27;;
15408;SDS011;7803;48.130;13.788;2022-08-19T06:11:35;32.03;;;17.95;;
15408;SDS011;7803;48.130;13.788;2022-08-19T06:14:39;26.73;;;14.95;;
15408;SDS011;7803;48.130;13.788;2022-08-19T06:17:41;23.90;;;14.23;;
15408;SDS011;7803;48.130;13.788;2022-08-19T06:20:45;15.75;;;12.38;;
15408;SDS011;7803;48.130;13.788;2022-08-19T06:23:49;15.70;;;11.68;;
15408;SDS011;7803;48.130;13.788;2022-08-19T06:26:53;13.90;;;11.38;;
15408;SDS011;7803;48.130;13.788;2022-08-19T06:29:58;14.65;;;12.35;;
15408;SDS011;7803;48.130;13.788;2022-08-19T06:33:00;12.32;;;11.02;;
15408;SDS011;7803;48.130;13.788;2022-08-19T06:36:02;13.13;;;11.73;;
15408;SDS011;7803;48.130;13.788;2022-08-19T06:39:06;12.93;;;11.57;;
15408;SDS011;7803;48.130;13.788;2022-08-19T06:42:11;12.48;;;11.18;;
15408;SDS011;7803;48.130;13.788;2022-08-19T06:45:17;12.35;;;11.15;;
15408;SDS011;7803;48.130;13.788;2022-08-19T06:48:20;12.15;;;11.05;;
15408;SDS011;7803;48.130;13.788;2022-08-19T06:51:22;12.88;;;11.57;;
15408;SDS011;7803;48.130;13.788;2022-08-19T06:54:25;12.52;;;11.32;;
15408;SDS011;7803;48.130;13.788;2022-08-19T06:57:29;12.45;;;11.25;;
15408;SDS011;7803;48.130;13.788;2022-08-19T07:00:34;12.70;;;11.45;;
15408;SDS011;7803;48.130;13.788;2022-08-19T07:03:36;12.70;;;11.48;;
15408;SDS011;7803;48.130;13.788;2022-08-19T07:06:39;12.65;;;11.45;;
15408;SDS011;7803;48.130;13.788;2022-08-19T07:09:42;12.57;;;11.38;;
15408;SDS011;7803;48.130;13.788;2022-08-19T07:12:45;13.95;;;12.30;;
15408;SDS011;7803;48.130;13.788;2022-08-19T07:15:49;12.32;;;11.23;;
15408;SDS011;7803;48.130;13.788;2022-08-19T07:18:51;12.90;;;11.60;;
15408;SDS011;7803;48.130;13.788;2022-08-19T07:21:53;12.77;;;11.48;;
15408;SDS011;7803;48.130;13.788;2022-08-19T07:24:56;14.43;;;12.98;;
15408;SDS011;7803;48.130;13.788;2022-08-19T07:27:58;14.13;;;12.75;;
15408;SDS011;7803;48.130;13.788;2022-08-19T07:31:01;14.55;;;12.75;;
15408;SDS011;7803;48.130;13.788;2022-08-19T07:34:04;19.88;;;12.27;;
15408;SDS011;7803;48.130;13.788;2022-08-19T07:37:07;14.02;;;12.80;;
15408;SDS011;7803;48.130;13.788;2022-08-19T07:40:10;14.32;;;13.02;;
15408;SDS011;7803;48.130;13.788;2022-08-19T07:43:13;14.80;;;13.27;;
15408;SDS011;7803;48.130;13.788;2022-08-19T07:46:17;14.55;;;13.10;;
15408;SDS011;7803;48.130;13.788;2022-08-19T07:49:20;14.25;;;12.95;;
15408;SDS011;7803;48.130;13.788;2022-08-19T07:52:23;15.10;;;13.60;;
15408;SDS011;7803;48.130;13.788;2022-08-19T07:55:25;15.73;;;14.23;;
15408;SDS011;7803;48.130;13.788;2022-08-19T07:58:27;15.40;;;14.10;;
15408;SDS011;7803;48.130;13.788;2022-08-19T08:01:31;14.93;;;13.63;;
15408;SDS011;7803;48.130;13.788;2022-08-19T08:04:33;15.75;;;14.25;;
15408;SDS011;7803;48.130;13.788;2022-08-19T08:07:54;16.67;;;15.18;;
15408;SDS011;7803;48.130;13.788;2022-08-19T08:11:19;17.38;;;15.70;;
15408;SDS011;7803;48.130;13.788;2022-08-19T08:14:23;18.45;;;16.75;;
15408;SDS011;7803;48.130;13.788;2022-08-19T08:17:29;18.42;;;16.83;;
15408;SDS011;7803;48.130;13.788;2022-08-19T08:20:32;19.27;;;17.55;;
15408;SDS011;7803;48.130;13.788;2022-08-19T08:23:34;21.20;;;19.13;;
15408;SDS011;7803;48.130;13.788;2022-08-19T08:26:36;21.45;;;19.55;;
15408;SDS011;7803;48.130;13.788;2022-08-19T08:29:38;22.50;;;20.58;;
15408;SDS011;7803;48.130;13.788;2022-08-19T08:32:42;22.55;;;20.48;;
15408;SDS011;7803;48.130;13.788;2022-08-19T08:35:44;23.05;;;21.05;;
15408;SDS011;7803;48.130;13.788;2022-08-19T08:38:46;24.20;;;22.10;;
15408;SDS011;7803;48.130;13.788;2022-08-19T08:41:51;22.38;;;20.48;;
15408;SDS011;7803;48.130;13.788;2022-08-19T08:44:58;14.30;;;13.10;;
15408;SDS011;7803;48.130;13.788;2022-08-19T08:48:03;14.35;;;13.13;;
15408;SDS011;7803;48.130;13.788;2022-08-19T08:51:15;14.65;;;13.27;;
15408;SDS011;7803;48.130;13.788;2022-08-19T08:54:24;13.77;;;12.57;;
15408;SDS011;7803;48.130;13.788;2022-08-19T08:57:32;13.30;;;12.18;;
15408;SDS011;7803;48.130;13.788;2022-08-19T09:00:39;13.35;;;12.25;;
15408;SDS011;7803;48.130;13.788;2022-08-19T09:03:46;12.48;;;11.48;;
15408;SDS011;7803;48.130;13.788;2022-08-19T09:06:49;12.88;;;11.75;;
15408;SDS011;7803;48.130;13.788;2022-08-19T09:09:56;12.27;;;11.18;;
15408;SDS011;7803;48.130;13.788;2022-08-19T09:13:10;12.35;;;11.35;;
15408;SDS011;7803;48.130;13.788;2022-08-19T09:16:18;11.38;;;10.38;;
15408;SDS011;7803;48.130;13.788;2022-08-19T09:19:25;11.98;;;10.90;;
15408;SDS011;7803;48.130;13.788;2022-08-19T09:22:27;11.88;;;10.88;;
15408;SDS011;7803;48.130;13.788;2022-08-19T09:25:29;12.38;;;11.35;;
15408;SDS011;7803;48.130;13.788;2022-08-19T09:28:34;14.07;;;12.88;;
15408;SDS011;7803;48.130;13.788;2022-08-19T09:31:37;14.25;;;12.95;;
15408;SDS011;7803;48.130;13.788;2022-08-19T09:34:41;13.45;;;12.25;;
15408;SDS011;7803;48.130;13.788;2022-08-19T09:37:43;12.70;;;11.43;;
15408;SDS011;7803;48.130;13.788;2022-08-19T09:40:45;11.93;;;10.82;;
15408;SDS011;7803;48.130;13.788;2022-08-19T09:43:48;12.95;;;11.75;;
15408;SDS011;7803;48.130;13.788;2022-08-19T09:46:52;12.10;;;11.10;;
15408;SDS011;7803;48.130;13.788;2022-08-19T09:49:55;12.07;;;11.00;;
15408;SDS011;7803;48.130;13.788;2022-08-19T09:52:57;14.13;;;12.82;;
15408;SDS011;7803;48.130;13.788;2022-08-19T09:55:59;12.85;;;11.65;;
15408;SDS011;7803;48.130;13.788;2022-08-19T09:59:02;13.25;;;12.07;;
15408;SDS011;7803;48.130;13.788;2022-08-19T10:02:04;12.93;;;11.73;;
15408;SDS011;7803;48.130;13.788;2022-08-19T10:05:08;11.57;;;10.48;;
15408;SDS011;7803;48.130;13.788;2022-08-19T10:08:28;11.15;;;10.15;;
15408;SDS011;7803;48.130;13.788;2022-08-19T10:11:33;10.93;;;10.02;;
15408;SDS011;7803;48.130;13.788;2022-08-19T10:14:37;10.75;;;9.75;;
15408;SDS011;7803;48.130;13.788;2022-08-19T10:17:39;10.43;;;9.55;;
15408;SDS011;7803;48.130;13.788;2022-08-19T10:20:42;10.40;;;9.50;;
15408;SDS011;7803;48.130;13.788;2022-08-19T10:23:46;11.02;;;9.95;;
15408;SDS011;7803;48.130;13.788;2022-08-19T10:26:49;11.55;;;10.45;;
15408;SDS011;7803;48.130;13.788;2022-08-19T10:29:51;10.57;;;9.68;;
15408;SDS011;7803;48.130;13.788;2022-08-19T10:32:53;10.88;;;9.98;;
15408;SDS011;7803;48.130;13.788;2022-08-19T10:35:59;10.40;;;9.27;;
15408;SDS011;7803;48.130;13.788;2022-08-19T10:39:04;11.10;;;10.18;;
15408;SDS011;7803;48.130;13.788;2022-08-19T10:42:08;10.23;;;9.07;;
15408;SDS011;7803;48.130;13.788;2022-08-19T10:45:12;10.05;;;9.23;;
15408;SDS011;7803;48.130;13.788;2022-08-19T10:48:14;10.43;;;9.43;;
15408;SDS011;7803;48.130;13.788;2022-08-19T10:51:18;10.32;;;9.43;;
15408;SDS011;7803;48.130;13.788;2022-08-19T10:54:38;11.48;;;10.40;;
15408;SDS011;7803;48.130;13.788;2022-08-19T10:57:57;12.80;;;11.60;;
15408;SDS011;7803;48.130;13.788;2022-08-19T11:00:59;12.10;;;10.90;;
15408;SDS011;7803;48.130;13.788;2022-08-19T11:04:02;11.18;;;10.20;;
15408;SDS011;7803;48.130;13.788;2022-08-19T11:07:09;11.93;;;10.75;;
15408;SDS011;7803;48.130;13.788;2022-08-19T11:10:13;12.63;;;11.32;;
15408;SDS011;7803;48.130;13.788;2022-08-19T11:13:19;16.73;;;10.45;;
15408;SDS011;7803;48.130;13.788;2022-08-19T11:16:21;12.50;;;10.00;;
15408;SDS011;7803;48.130;13.788;2022-08-19T11:19:26;10.52;;;9.63;;
15408;SDS011;7803;48.130;13.788;2022-08-19T11:22:29;11.15;;;9.77;;
15408;SDS011;7803;48.130;13.788;2022-08-19T11:25:31;10.98;;;10.07;;
15408;SDS011;7803;48.130;13.788;2022-08-19T11:28:34;11.25;;;10.25;;
15408;SDS011;7803;48.130;13.788;2022-08-19T11:31:37;10.63;;;9.73;;
15408;SDS011;7803;48.130;13.788;2022-08-19T11:34:40;10.63;;;9.70;;
15408;SDS011;7803;48.130;13.788;2022-08-19T11:37:44;10.82;;;9.82;;
15408;SDS011;7803;48.130;13.788;2022-08-19T11:40:53;10.18;;;9.27;;
15408;SDS011;7803;48.130;13.788;2022-08-19T11:43:56;9.68;;;8.88;;
15408;SDS011;7803;48.130;13.788;2022-08-19T11:46:58;10.07;;;9.18;;
15408;SDS011;7803;48.130;13.788;2022-08-19T11:50:00;10.32;;;9.43;;
15408;SDS011;7803;48.130;13.788;2022-08-19T11:53:04;9.93;;;8.75;;
15408;SDS011;7803;48.130;13.788;2022-08-19T11:56:06;9.43;;;8.73;;
15408;SDS011;7803;48.130;13.788;2022-08-19T11:59:09;9.38;;;8.63;;
15408;SDS011;7803;48.130;13.788;2022-08-19T12:02:11;9.73;;;8.93;;
15408;SDS011;7803;48.130;13.788;2022-08-19T12:05:15;9.85;;;8.95;;
15408;SDS011;7803;48.130;13.788;2022-08-19T12:08:19;8.70;;;8.00;;
15408;SDS011;7803;48.130;13.788;2022-08-19T12:11:21;9.88;;;8.98;;
15408;SDS011;7803;48.130;13.788;2022-08-19T12:14:23;9.25;;;8.35;;
15408;SDS011;7803;48.130;13.788;2022-08-19T12:17:28;9.05;;;8.25;;
15408;SDS011;7803;48.130;13.788;2022-08-19T12:20:31;8.63;;;7.85;;
15408;SDS011;7803;48.130;13.788;2022-08-19T12:23:37;8.73;;;8.02;;
15408;SDS011;7803;48.130;13.788;2022-08-19T12:26:39;9.07;;;8.38;;
15408;SDS011;7803;48.130;13.788;2022-08-19T12:29:42;8.43;;;7.72;;
15408;SDS011;7803;48.130;13.788;2022-08-19T12:32:44;8.75;;;8.05;;
15408;SDS011;7803;48.130;13.788;2022-08-19T12:35:46;8.65;;;7.97;;
15408;SDS011;7803;48.130;13.788;2022-08-19T12:38:50;8.65;;;7.85;;
15408;SDS011;7803;48.130;13.788;2022-08-19T12:41:53;9.18;;;8.25;;
15408;SDS011;7803;48.130;13.788;2022-08-19T12:44:55;8.82;;;8.02;;
15408;SDS011;7803;48.130;13.788;2022-08-19T12:47:57;8.38;;;7.68;;
15408;SDS011;7803;48.130;13.788;2022-08-19T12:51:00;8.15;;;7.50;;
15408;SDS011;7803;48.130;13.788;2022-08-19T12:54:07;8.27;;;7.57;;
15408;SDS011;7803;48.130;13.788;2022-08-19T12:57:10;8.07;;;7.38;;
15408;SDS011;7803;48.130;13.788;2022-08-19T13:00:13;8.15;;;7.50;;
15408;SDS011;7803;48.130;13.788;2022-08-19T13:03:17;8.20;;;7.53;;
15408;SDS011;7803;48.130;13.788;2022-08-19T13:06:19;8.40;;;7.70;;
15408;SDS011;7803;48.130;13.788;2022-08-19T13:09:23;8.63;;;7.93;;
15408;SDS011;7803;48.130;13.788;2022-08-19T13:12:25;8.70;;;7.97;;
15408;SDS011;7803;48.130;13.788;2022-08-19T13:15:27;8.80;;;8.00;;
15408;SDS011;7803;48.130;13.788;2022-08-19T13:18:31;8.40;;;7.70;;
15408;SDS011;7803;48.130;13.788;2022-08-19T13:21:33;8.10;;;7.40;;
15408;SDS011;7803;48.130;13.788;2022-08-19T13:24:36;7.40;;;6.80;;
15408;SDS011;7803;48.130;13.788;2022-08-19T13:27:39;8.48;;;7.65;;
15408;SDS011;7803;48.130;13.788;2022-08-19T13:30:41;8.63;;;7.82;;
15408;SDS011;7803;48.130;13.788;2022-08-19T13:34:00;8.02;;;7.32;;
15408;SDS011;7803;48.130;13.788;2022-08-19T13:37:03;7.70;;;7.10;;
15408;SDS011;7803;48.130;13.788;2022-08-19T13:40:08;8.70;;;7.95;;
15408;SDS011;7803;48.130;13.788;2022-08-19T13:43:13;8.68;;;7.97;;
15408;SDS011;7803;48.130;13.788;2022-08-19T13:46:15;8.55;;;7.65;;
15408;SDS011;7803;48.130;13.788;2022-08-19T13:49:17;7.93;;;7.30;;
15408;SDS011;7803;48.130;13.788;2022-08-19T13:52:20;7.78;;;7.18;;
15408;SDS011;7803;48.130;13.788;2022-08-19T13:55:24;7.15;;;6.55;;
15408;SDS011;7803;48.130;13.788;2022-08-19T13:58:26;7.85;;;7.20;;
15408;SDS011;7803;48.130;13.788;2022-08-19T14:01:29;7.10;;;6.60;;
15408;SDS011;7803;48.130;13.788;2022-08-19T14:04:31;7.60;;;7.00;;
15408;SDS011;7803;48.130;13.788;2022-08-19T14:07:33;8.02;;;6.90;;
15408;SDS011;7803;48.130;13.788;2022-08-19T14:10:37;7.68;;;7.07;;
15408;SDS011;7803;48.130;13.788;2022-08-19T14:13:39;7.03;;;6.43;;
15408;SDS011;7803;48.130;13.788;2022-08-19T14:16:41;7.57;;;6.88;;
15408;SDS011;7803;48.130;13.788;2022-08-19T14:19:43;7.63;;;7.00;;
15408;SDS011;7803;48.130;13.788;2022-08-19T14:22:46;7.32;;;6.80;;
15408;SDS011;7803;48.130;13.788;2022-08-19T14:25:50;6.75;;;6.18;;
15408;SDS011;7803;48.130;13.788;2022-08-19T14:28:52;7.10;;;6.57;;
15408;SDS011;7803;48.130;13.788;2022-08-19T14:31:57;6.53;;;6.03;;
15408;SDS011;7803;48.130;13.788;2022-08-19T14:35:00;6.57;;;6.07;;
15408;SDS011;7803;48.130;13.788;2022-08-19T14:38:02;6.63;;;6.13;;
15408;SDS011;7803;48.130;13.788;2022-08-19T14:41:08;6.82;;;6.25;;
15408;SDS011;7803;48.130;13.788;2022-08-19T14:44:12;6.60;;;6.10;;
15408;SDS011;7803;48.130;13.788;2022-08-19T14:47:14;7.15;;;5.68;;
15408;SDS011;7803;48.130;13.788;2022-08-19T14:50:16;5.65;;;4.43;;
15408;SDS011;7803;48.130;13.788;2022-08-19T14:53:18;5.47;;;4.97;;
15408;SDS011;7803;48.130;13.788;2022-08-19T14:56:22;6.00;;;4.70;;
15408;SDS011;7803;48.130;13.788;2022-08-19T14:59:29;6.35;;;4.20;;
15408;SDS011;7803;48.130;13.788;2022-08-19T15:02:31;4.82;;;3.72;;
15408;SDS011;7803;48.130;13.788;2022-08-19T15:05:33;6.65;;;3.80;;
15408;SDS011;7803;48.130;13.788;2022-08-19T15:08:37;5.78;;;3.70;;
15408;SDS011;7803;48.130;13.788;2022-08-19T15:11:42;7.07;;;3.40;;
15408;SDS011;7803;48.130;13.788;2022-08-19T15:14:44;6.03;;;3.55;;
15408;SDS011;7803;48.130;13.788;2022-08-19T15:17:50;5.38;;;3.10;;
15408;SDS011;7803;48.130;13.788;2022-08-19T15:20:52;5.68;;;3.22;;
15408;SDS011;7803;48.130;13.788;2022-08-19T15:23:55;5.63;;;3.40;;
15408;SDS011;7803;48.130;13.788;2022-08-19T15:26:59;4.60;;;3.00;;
15408;SDS011;7803;48.130;13.788;2022-08-19T15:30:01;4.55;;;3.05;;
15408;SDS011;7803;48.130;13.788;2022-08-19T15:33:05;5.40;;;3.00;;
15408;SDS011;7803;48.130;13.788;2022-08-19T15:36:07;3.80;;;2.92;;
15408;SDS011;7803;48.130;13.788;2022-08-19T15:39:12;4.68;;;3.15;;
15408;SDS011;7803;48.130;13.788;2022-08-19T15:42:15;3.20;;;2.70;;
15408;SDS011;7803;48.130;13.788;2022-08-19T15:45:20;5.85;;;2.75;;
15408;SDS011;7803;48.130;13.788;2022-08-19T15:48:23;4.13;;;2.75;;
15408;SDS011;7803;48.130;13.788;2022-08-19T15:51:26;3.78;;;2.70;;
15408;SDS011;7803;48.130;13.788;2022-08-19T15:54:30;4.38;;;2.80;;
15408;SDS011;7803;48.130;13.788;2022-08-19T15:57:33;3.65;;;2.75;;
15408;SDS011;7803;48.130;13.788;2022-08-19T16:00:53;3.97;;;2.60;;
15408;SDS011;7803;48.130;13.788;2022-08-19T16:04:12;3.22;;;2.42;;
15408;SDS011;7803;48.130;13.788;2022-08-19T16:07:32;3.42;;;2.45;;
15408;SDS011;7803;48.130;13.788;2022-08-19T16:10:34;4.13;;;2.33;;
15408;SDS011;7803;48.130;13.788;2022-08-19T16:13:38;3.83;;;2.58;;
15408;SDS011;7803;48.130;13.788;2022-08-19T16:16:41;7.00;;;2.92;;
15408;SDS011;7803;48.130;13.788;2022-08-19T16:19:45;4.47;;;2.75;;
15408;SDS011;7803;48.130;13.788;2022-08-19T16:22:47;3.75;;;2.30;;
15408;SDS011;7803;48.130;13.788;2022-08-19T16:25:50;4.25;;;2.60;;
15408;SDS011;7803;48.130;13.788;2022-08-19T16:28:53;3.15;;;2.22;;
15408;SDS011;7803;48.130;13.788;2022-08-19T16:31:56;3.88;;;2.10;;
15408;SDS011;7803;48.130;13.788;2022-08-19T16:34:58;2.85;;;2.40;;
15408;SDS011;7803;48.130;13.788;2022-08-19T16:38:03;3.47;;;2.50;;
15408;SDS011;7803;48.130;13.788;2022-08-19T16:41:06;2.38;;;2.15;;
15408;SDS011;7803;48.130;13.788;2022-08-19T16:44:10;2.63;;;2.15;;
15408;SDS011;7803;48.130;13.788;2022-08-19T16:47:14;5.25;;;2.35;;
15408;SDS011;7803;48.130;13.788;2022-08-19T16:50:17;3.03;;;2.30;;
15408;SDS011;7803;48.130;13.788;2022-08-19T16:53:21;5.15;;;2.50;;
15408;SDS011;7803;48.130;13.788;2022-08-19T16:56:27;4.65;;;2.38;;
15408;SDS011;7803;48.130;13.788;2022-08-19T16:59:31;5.78;;;2.13;;
15408;SDS011;7803;48.130;13.788;2022-08-19T17:02:33;3.75;;;2.22;;
15408;SDS011;7803;48.130;13.788;2022-08-19T17:05:40;3.78;;;2.05;;
15408;SDS011;7803;48.130;13.788;2022-08-19T17:08:43;4.05;;;1.92;;
15408;SDS011;7803;48.130;13.788;2022-08-19T17:11:45;4.75;;;2.20;;
15408;SDS011;7803;48.130;13.788;2022-08-19T17:14:49;4.93;;;2.13;;
15408;SDS011;7803;48.130;13.788;2022-08-19T17:17:51;5.47;;;2.10;;
15408;SDS011;7803;48.130;13.788;2022-08-19T17:20:53;5.07;;;2.42;;
15408;SDS011;7803;48.130;13.788;2022-08-19T17:23:55;4.15;;;2.10;;
15408;SDS011;7803;48.130;13.788;2022-08-19T17:26:58;3.92;;;1.90;;
15408;SDS011;7803;48.130;13.788;2022-08-19T17:30:03;3.58;;;1.90;;
15408;SDS011;7803;48.130;13.788;2022-08-19T17:33:06;3.67;;;2.10;;
15408;SDS011;7803;48.130;13.788;2022-08-19T17:36:08;3.08;;;2.15;;
15408;SDS011;7803;48.130;13.788;2022-08-19T17:39:10;5.82;;;2.05;;
15408;SDS011;7803;48.130;13.788;2022-08-19T17:42:13;4.00;;;2.20;;
15408;SDS011;7803;48.130;13.788;2022-08-19T17:45:16;2.20;;;1.88;;
15408;SDS011;7803;48.130;13.788;2022-08-19T17:48:19;4.88;;;2.20;;
15408;SDS011;7803;48.130;13.788;2022-08-19T17:51:25;3.80;;;2.33;;
15408;SDS011;7803;48.130;13.788;2022-08-19T17:54:40;4.15;;;2.38;;
15408;SDS011;7803;48.130;13.788;2022-08-19T17:57:42;3.58;;;2.22;;
15408;SDS011;7803;48.130;13.788;2022-08-19T18:00:46;3.95;;;2.25;;
15408;SDS011;7803;48.130;13.788;2022-08-19T18:03:48;3.30;;;2.42;;
15408;SDS011;7803;48.130;13.788;2022-08-19T18:06:50;4.43;;;2.38;;
15408;SDS011;7803;48.130;13.788;2022-08-19T18:09:52;4.50;;;2.55;;
15408;SDS011;7803;48.130;13.788;2022-08-19T18:12:54;3.95;;;2.20;;
15408;SDS011;7803;48.130;13.788;2022-08-19T18:15:58;4.28;;;2.28;;
15408;SDS011;7803;48.130;13.788;2022-08-19T18:19:01;3.65;;;2.10;;
15408;SDS011;7803;48.130;13.788;2022-08-19T18:22:03;2.78;;;2.00;;
15408;SDS011;7803;48.130;13.788;2022-08-19T18:25:07;3.25;;;2.28;;
15408;SDS011;7803;48.130;13.788;2022-08-19T18:28:11;3.88;;;2.35;;